Time;durP1;ratioP1;P1;durP2;ratioP2;P2;SDS_P1;SDS_P2;PMS_P1;PMS_P2;Temp;Humidity;BMP_temperature;BMP_pressure;BME280_temperature;BME280_humidity;BME280_pressure;Samples;Min_cycle;Max_cycle;Signal;HPM_P1;HPM_P2
2022/06/15 00:01:24;;;;;;;13.07;7.85;;;;;;;20.04;100.00;101393.47;5139299;28;20012;-74
2022/06/15 00:04:09;;;;;;;11.20;7.57;;;;;;;19.92;100.00;101392.25;5132317;28;20038;-74
2022/06/15 00:06:55;;;;;;;14.15;7.97;;;;;;;19.84;100.00;101394.41;5132680;28;20027;-73
2022/06/15 00:09:41;;;;;;;10.20;8.23;;;;;;;19.89;100.00;101396.88;5128678;28;20032;-74
2022/06/15 00:12:26;;;;;;;12.85;8.07;;;;;;;19.76;100.00;101393.88;5105159;28;20414;-75
2022/06/15 00:15:13;;;;;;;12.65;8.32;;;;;;;19.72;100.00;101394.94;5118054;28;20023;-76
2022/06/15 00:17:59;;;;;;;15.45;8.38;;;;;;;19.51;100.00;101405.66;5116667;28;20027;-74
2022/06/15 00:20:45;;;;;;;13.88;7.97;;;;;;;19.65;100.00;101401.44;5116088;28;20048;-75
2022/06/15 00:23:32;;;;;;;12.02;8.32;;;;;;;19.61;100.00;101410.50;5102158;28;20027;-75
2022/06/15 00:26:18;;;;;;;13.07;8.68;;;;;;;19.58;100.00;101407.13;5118571;28;20047;-75
2022/06/15 00:29:05;;;;;;;16.48;8.20;;;;;;;19.39;100.00;101401.72;5101695;28;20032;-74
2022/06/15 00:31:51;;;;;;;13.60;8.90;;;;;;;19.47;100.00;101394.28;5102073;28;20055;-75
2022/06/15 00:34:37;;;;;;;13.98;8.57;;;;;;;19.16;100.00;101399.13;5115851;28;20031;-75
2022/06/15 00:37:23;;;;;;;12.65;8.48;;;;;;;19.10;100.00;101397.59;5116374;28;20118;-75
2022/06/15 00:40:09;;;;;;;11.63;8.02;;;;;;;19.07;100.00;101412.81;5101318;28;20015;-75
2022/06/15 00:42:55;;;;;;;14.40;8.48;;;;;;;19.00;100.00;101406.88;5116151;28;20090;-75
2022/06/15 00:45:41;;;;;;;14.52;9.10;;;;;;;19.12;100.00;101400.19;5115883;28;20470;-75
2022/06/15 00:48:27;;;;;;;13.98;9.38;;;;;;;19.03;100.00;101403.25;5116264;28;20088;-74
2022/06/15 00:51:14;;;;;;;14.05;9.02;;;;;;;19.17;100.00;101401.72;5116381;28;20023;-74
2022/06/15 00:54:01;;;;;;;12.25;8.38;;;;;;;18.98;100.00;101405.22;5101173;28;20034;-75
2022/06/15 00:56:47;;;;;;;12.80;8.70;;;;;;;18.72;100.00;101394.78;5117243;28;20428;-75
2022/06/15 00:59:50;;;;;;;16.23;9.20;;;;;;;19.20;100.00;101395.41;5102336;28;20087;-75
2022/06/15 01:02:37;;;;;;;20.05;8.93;;;;;;;18.86;100.00;101406.56;5118119;28;20031;-74
2022/06/15 01:05:31;;;;;;;12.57;9.10;;;;;;;18.96;100.00;101404.41;5100263;28;20028;-74
2022/06/15 01:08:25;;;;;;;15.57;9.77;;;;;;;19.15;100.00;101411.56;5115328;28;20038;-76
2022/06/15 01:11:22;;;;;;;18.00;10.25;;;;;;;19.23;100.00;101411.25;5115163;28;20479;-74
2022/06/15 01:14:16;;;;;;;12.50;9.18;;;;;;;19.24;100.00;101412.16;5115176;28;20019;-75
2022/06/15 01:17:21;;;;;;;12.82;9.02;;;;;;;19.13;100.00;101415.22;5114695;28;20366;-74
2022/06/15 01:20:06;;;;;;;12.77;8.85;;;;;;;19.01;100.00;101415.72;5114479;28;20043;-75
2022/06/15 01:23:30;;;;;;;25.00;10.40;;;;;;;19.03;100.00;101409.44;5099737;28;20028;-75
2022/06/15 01:26:33;;;;;;;17.10;10.88;;;;;;;19.15;100.00;101419.53;5116021;28;20508;-75
2022/06/15 01:29:49;;;;;;;14.65;11.05;;;;;;;19.00;100.00;101421.94;5116072;28;20081;-75
2022/06/15 01:32:42;;;;;;;17.75;10.30;;;;;;;19.05;100.00;101420.00;5115656;28;20039;-75
2022/06/15 01:35:43;;;;;;;17.30;10.45;;;;;;;19.00;100.00;101419.28;5114945;28;20451;-75
2022/06/15 01:38:48;;;;;;;18.13;8.75;;;;;;;18.79;100.00;101421.03;5115307;28;20119;-74
2022/06/15 01:42:02;;;;;;;14.70;8.18;;;;;;;18.90;100.00;101409.97;5115314;28;20024;-75
2022/06/15 01:44:53;;;;;;;16.80;8.07;;;;;;;18.92;100.00;101411.66;5115246;28;20022;-75
2022/06/15 01:47:41;;;;;;;16.48;7.47;;;;;;;18.85;100.00;101404.84;5115214;28;20111;-75
2022/06/15 01:50:34;;;;;;;14.35;6.97;;;;;;;18.90;100.00;101399.34;5115785;28;20023;-76
2022/06/15 01:53:26;;;;;;;12.95;6.53;;;;;;;18.80;100.00;101392.69;5115047;28;20019;-73
2022/06/15 01:56:27;;;;;;;9.05;5.63;;;;;;;18.95;100.00;101408.00;5089057;28;20077;-74
2022/06/15 01:59:43;;;;;;;13.38;6.55;;;;;;;19.17;100.00;101391.09;5100484;28;20027;-75
2022/06/15 02:03:24;;;;;;;13.15;6.43;;;;;;;18.80;100.00;101395.34;5101378;28;20039;-75
2022/06/15 02:06:27;;;;;;;11.98;6.43;;;;;;;18.99;100.00;101406.94;5076664;28;20066;-74
2022/06/15 02:09:18;;;;;;;10.32;6.35;;;;;;;19.04;100.00;101411.16;5114707;28;20475;-74
2022/06/15 02:12:07;;;;;;;10.45;6.63;;;;;;;18.91;100.00;101409.94;5113955;28;20498;-75
2022/06/15 02:14:58;;;;;;;13.65;5.88;;;;;;;18.90;100.00;101402.84;5100006;28;20062;-75
2022/06/15 02:17:47;;;;;;;13.65;7.38;;;;;;;18.91;100.00;101409.03;5114538;28;20035;-75
2022/06/15 02:20:39;;;;;;;8.63;6.03;;;;;;;18.90;100.00;101409.97;5114205;28;20123;-74
2022/06/15 02:23:27;;;;;;;14.10;6.70;;;;;;;18.87;100.00;101407.44;5099275;28;20107;-75
2022/06/15 02:26:15;;;;;;;11.52;6.60;;;;;;;18.85;100.00;101414.63;5099327;28;20039;-76
2022/06/15 02:29:06;;;;;;;14.40;5.75;;;;;;;19.02;100.00;101412.97;5114163;28;20098;-75
2022/06/15 02:31:56;;;;;;;10.50;5.88;;;;;;;18.85;100.00;101412.81;5099957;28;20107;-77
2022/06/15 02:34:43;;;;;;;9.30;6.40;;;;;;;18.87;100.00;101416.28;5114354;28;20360;-76
2022/06/15 02:37:28;;;;;;;9.90;6.38;;;;;;;18.98;100.00;101424.66;5114426;28;20128;-76
2022/06/15 02:40:23;;;;;;;8.32;5.97;;;;;;;18.83;100.00;101421.78;5099719;28;20173;-75
2022/06/15 02:43:11;;;;;;;11.25;6.00;;;;;;;19.08;100.00;101435.78;5100317;28;20032;-75
2022/06/15 02:45:59;;;;;;;9.40;5.60;;;;;;;19.03;100.00;101436.00;5114720;28;20015;-75
2022/06/15 02:48:46;;;;;;;12.52;5.70;;;;;;;18.87;100.00;101436.66;5116788;28;20027;-76
2022/06/15 02:51:43;;;;;;;8.52;6.20;;;;;;;19.09;100.00;101437.53;5116107;28;20489;-75
2022/06/15 02:54:38;;;;;;;12.75;6.03;;;;;;;18.77;100.00;101437.97;5118161;28;20046;-75
2022/06/15 02:57:25;;;;;;;9.90;5.68;;;;;;;18.82;100.00;101435.97;5103123;28;20038;-75
2022/06/15 03:00:12;;;;;;;13.13;5.72;;;;;;;18.95;100.00;101437.22;5118621;28;20025;-74
2022/06/15 03:02:58;;;;;;;10.75;5.40;;;;;;;18.94;100.00;101438.16;5117808;28;20023;-74
2022/06/15 03:05:47;;;;;;;11.15;5.82;;;;;;;18.80;100.00;101435.16;5117420;28;20020;-77
2022/06/15 03:08:32;;;;;;;9.57;5.60;;;;;;;18.71;100.00;101438.19;5117279;28;20027;-75
2022/06/15 03:11:18;;;;;;;9.82;5.47;;;;;;;19.25;100.00;101445.75;5116644;28;20051;-76
2022/06/15 03:14:04;;;;;;;13.10;6.00;;;;;;;19.10;100.00;101444.56;5116827;28;20043;-75
2022/06/15 03:16:50;;;;;;;13.38;5.50;;;;;;;19.20;100.00;101437.94;5119100;28;20023;-76
2022/06/15 03:19:36;;;;;;;9.85;5.18;;;;;;;19.14;100.00;101444.34;5115396;28;20055;-76
2022/06/15 03:22:22;;;;;;;10.00;5.47;;;;;;;19.13;100.00;101439.13;5100717;28;20020;-76
2022/06/15 03:25:08;;;;;;;13.95;5.85;;;;;;;18.92;100.00;101450.59;5117567;28;20051;-76
2022/06/15 03:27:53;;;;;;;7.50;5.53;;;;;;;19.33;100.00;101454.28;5102443;28;20363;-76
2022/06/15 03:30:39;;;;;;;10.85;5.32;;;;;;;19.31;100.00;101459.66;5118451;28;20036;-75
2022/06/15 03:33:25;;;;;;;9.63;4.85;;;;;;;19.18;100.00;101456.59;5121610;28;20077;-74
2022/06/15 03:36:11;;;;;;;6.03;4.72;;;;;;;18.94;100.00;101454.91;5125732;28;20057;-72
2022/06/15 03:38:56;;;;;;;6.85;5.03;;;;;;;19.48;100.00;101449.16;5121783;28;20131;-74
2022/06/15 03:41:42;;;;;;;7.93;5.43;;;;;;;19.66;100.00;101458.16;5121166;28;20429;-74
2022/06/15 03:44:28;;;;;;;9.90;4.75;;;;;;;19.67;100.00;101463.41;5120921;28;20075;-73
2022/06/15 03:47:17;;;;;;;8.52;5.05;;;;;;;19.96;100.00;101457.69;5119905;28;20110;-73
2022/06/15 03:50:03;;;;;;;8.30;4.80;;;;;;;19.86;100.00;101453.72;5124212;28;20024;-72
2022/06/15 03:52:49;;;;;;;7.07;5.10;;;;;;;19.83;100.00;101460.94;5103054;28;20028;-73
2022/06/15 03:55:36;;;;;;;8.05;4.93;;;;;;;19.73;100.00;101463.13;5117506;28;20467;-74
2022/06/15 03:58:22;;;;;;;6.97;5.07;;;;;;;19.91;100.00;101464.13;5103110;28;20032;-73
2022/06/15 04:01:08;;;;;;;11.38;5.57;;;;;;;19.99;100.00;101475.31;5117524;28;20088;-73
2022/06/15 04:03:54;;;;;;;11.63;5.28;;;;;;;20.11;100.00;101467.69;5117536;28;20073;-73
2022/06/15 04:06:41;;;;;;;7.57;5.03;;;;;;;20.24;100.00;101473.31;5117575;28;20028;-72
2022/06/15 04:09:27;;;;;;;6.95;4.88;;;;;;;20.03;100.00;101474.25;5101905;28;20111;-72
2022/06/15 04:12:13;;;;;;;8.02;5.00;;;;;;;19.97;100.00;101477.19;5116586;28;20372;-72
2022/06/15 04:14:59;;;;;;;9.32;5.00;;;;;;;19.98;100.00;101478.91;5116526;28;20096;-73
2022/06/15 04:17:45;;;;;;;10.63;5.00;;;;;;;20.54;100.00;101479.91;5117593;28;20459;-73
2022/06/15 04:20:33;;;;;;;8.27;4.78;;;;;;;20.29;100.00;101476.66;5117906;28;20452;-73
2022/06/15 04:23:21;;;;;;;7.65;4.65;;;;;;;20.12;100.00;101488.03;5116939;28;20047;-72
2022/06/15 04:26:08;;;;;;;9.13;5.18;;;;;;;20.50;100.00;101491.63;5102254;28;20024;-72
2022/06/15 04:28:54;;;;;;;10.45;5.20;;;;;;;20.44;100.00;101490.13;5117369;28;20103;-74
2022/06/15 04:31:40;;;;;;;14.18;5.38;;;;;;;20.19;100.00;101480.66;5116515;28;20031;-72
2022/06/15 04:34:26;;;;;;;12.40;5.20;;;;;;;20.57;100.00;101487.75;5115220;28;20024;-73
2022/06/15 04:37:12;;;;;;;8.77;5.20;;;;;;;20.54;100.00;101491.41;5115930;28;20470;-73
2022/06/15 04:39:58;;;;;;;8.90;5.05;;;;;;;20.15;100.00;101489.69;5116685;28;20100;-72
2022/06/15 04:42:44;;;;;;;14.38;5.30;;;;;;;20.57;100.00;101495.75;5102038;28;20023;-73
2022/06/15 04:45:30;;;;;;;11.07;5.53;;;;;;;20.54;100.00;101496.72;5117074;28;20495;-73
2022/06/15 04:48:15;;;;;;;11.13;6.00;;;;;;;20.43;100.00;101492.84;5116181;28;20027;-72
2022/06/15 04:51:21;;;;;;;13.20;5.72;;;;;;;20.34;100.00;101491.47;5116935;28;20360;-72
2022/06/15 04:54:09;;;;;;;13.13;5.80;;;;;;;20.47;100.00;101489.97;5116969;28;20023;-73
2022/06/15 04:56:55;;;;;;;13.80;5.53;;;;;;;20.56;100.00;101489.56;5115907;28;20023;-73
2022/06/15 04:59:42;;;;;;;15.25;5.80;;;;;;;20.05;100.00;101499.00;5115676;28;20027;-72
2022/06/15 05:02:27;;;;;;;13.95;5.97;;;;;;;20.14;100.00;101502.16;5116055;28;20023;-71
2022/06/15 05:05:13;;;;;;;11.07;5.60;;;;;;;20.44;100.00;101498.09;5115304;28;20142;-74
2022/06/15 05:07:59;;;;;;;14.27;5.88;;;;;;;20.83;100.00;101498.94;5115361;28;20020;-74
2022/06/15 05:10:45;;;;;;;14.63;5.50;;;;;;;20.62;100.00;101507.06;5116290;28;20352;-73
2022/06/15 05:13:31;;;;;;;13.00;5.30;;;;;;;20.25;100.00;101499.00;5116041;28;20091;-72
2022/06/15 05:16:16;;;;;;;13.65;5.75;;;;;;;20.85;100.00;101505.03;5100673;28;20444;-73
2022/06/15 05:19:03;;;;;;;9.88;5.10;;;;;;;20.99;100.00;101510.63;5115206;28;20371;-73
2022/06/15 05:21:49;;;;;;;12.65;4.97;;;;;;;20.75;100.00;101514.41;5114991;28;20032;-74
2022/06/15 05:24:35;;;;;;;14.65;4.85;;;;;;;20.94;100.00;101519.75;5115123;28;20375;-73
2022/06/15 05:27:21;;;;;;;18.63;5.15;;;;;;;20.75;100.00;101514.41;5116276;28;20023;-73
2022/06/15 05:30:07;;;;;;;12.10;4.60;;;;;;;20.94;100.00;101517.94;5115082;28;20363;-72
2022/06/15 05:32:53;;;;;;;7.93;4.78;;;;;;;21.12;100.00;101514.41;5115674;28;20355;-73
2022/06/15 05:35:39;;;;;;;11.55;4.68;;;;;;;20.97;100.00;101517.81;5116379;28;20027;-73
2022/06/15 05:38:25;;;;;;;9.02;4.93;;;;;;;20.94;100.00;101515.28;5114732;28;20055;-74
2022/06/15 05:41:11;;;;;;;11.63;5.25;;;;;;;21.14;100.00;101511.69;5115206;28;20042;-73
2022/06/15 05:44:04;;;;;;;15.55;5.53;;;;;;;21.00;100.00;101515.00;5115375;28;20172;-73
2022/06/15 05:46:58;;;;;;;9.30;5.50;;;;;;;20.99;100.00;101523.06;5114141;28;20023;-72
2022/06/15 05:49:44;;;;;;;20.33;5.35;;;;;;;21.16;100.00;101526.66;5115664;28;20034;-73
2022/06/15 05:52:30;;;;;;;12.65;5.85;;;;;;;21.02;100.00;101525.59;5115224;28;20031;-73
2022/06/15 05:55:16;;;;;;;7.22;4.90;;;;;;;21.29;100.00;101534.91;5114669;28;20470;-72
2022/06/15 05:58:03;;;;;;;13.07;5.93;;;;;;;21.77;100.00;101532.50;5115320;28;20035;-72
2022/06/15 06:00:48;;;;;;;11.00;4.82;;;;;;;21.82;100.00;101539.34;5115197;28;20443;-72
2022/06/15 06:03:35;;;;;;;12.23;6.95;;;;;;;22.50;100.00;101530.44;5115174;28;20039;-73
2022/06/15 06:06:21;;;;;;;7.72;6.68;;;;;;;22.67;100.00;101538.44;5115011;28;20038;-72
2022/06/15 06:09:09;;;;;;;12.55;6.47;;;;;;;22.47;100.00;101544.81;5114566;28;20046;-73
2022/06/15 06:11:55;;;;;;;14.60;4.90;;;;;;;22.43;100.00;101539.72;5114782;28;20034;-72
2022/06/15 06:14:42;;;;;;;5.78;4.40;;;;;;;22.11;100.00;101545.88;5114713;28;20069;-72
2022/06/15 06:17:28;;;;;;;7.15;4.55;;;;;;;22.32;100.00;101547.41;5113880;28;20023;-73
2022/06/15 06:20:13;;;;;;;17.13;9.85;;;;;;;22.10;100.00;101546.81;5114670;28;20051;-73
2022/06/15 06:22:59;;;;;;;6.95;4.70;;;;;;;22.67;100.00;101549.13;5099373;28;20035;-73
2022/06/15 06:25:50;;;;;;;10.32;3.83;;;;;;;22.02;100.00;101554.38;5099472;28;20027;-73
2022/06/15 06:28:41;;;;;;;13.38;4.25;;;;;;;22.11;100.00;101549.38;5113799;28;20031;-73
2022/06/15 06:31:28;;;;;;;8.32;5.60;;;;;;;23.03;100.00;101544.44;5113790;28;20020;-72
2022/06/15 06:34:14;;;;;;;10.80;3.85;;;;;;;22.95;100.00;101554.69;5113711;28;20023;-74
2022/06/15 06:37:02;;;;;;;9.48;3.67;;;;;;;22.85;100.00;101550.78;5113684;28;20038;-73
2022/06/15 06:39:53;;;;;;;5.28;3.75;;;;;;;23.15;100.00;101549.94;5114233;28;20023;-71
2022/06/15 06:42:39;;;;;;;8.52;4.00;;;;;;;23.32;100.00;101559.72;5114229;28;20042;-73
2022/06/15 06:45:25;;;;;;;6.25;4.13;;;;;;;23.36;100.00;101553.25;5113681;28;20020;-72
2022/06/15 06:48:11;;;;;;;5.45;3.60;;;;;;;23.08;100.00;101550.38;5114250;28;20032;-72
2022/06/15 06:50:57;;;;;;;8.32;3.67;;;;;;;23.39;100.00;101547.72;5113626;28;20042;-72
2022/06/15 06:53:43;;;;;;;9.25;3.80;;;;;;;23.43;100.00;101544.78;5113490;28;20024;-73
2022/06/15 06:56:29;;;;;;;8.23;3.40;;;;;;;23.89;100.00;101551.00;5100177;28;20507;-73
2022/06/15 06:59:16;;;;;;;9.00;4.10;;;;;;;23.84;100.00;101555.75;5103857;28;20103;-73
2022/06/15 07:02:02;;;;;;;9.13;3.50;;;;;;;23.72;100.00;101560.97;5102650;28;20092;-73
2022/06/15 07:04:48;;;;;;;8.10;3.72;;;;;;;23.23;100.00;101571.78;5102458;28;20030;-72
2022/06/15 07:07:33;;;;;;;6.57;3.45;;;;;;;22.71;100.00;101564.03;5118534;28;20024;-73
2022/06/15 07:10:19;;;;;;;5.15;3.67;;;;;;;23.44;100.00;101561.69;5103539;28;20363;-74
2022/06/15 07:13:05;;;;;;;8.00;3.90;;;;;;;23.06;100.00;101565.63;5102973;28;20108;-74
2022/06/15 07:15:52;;;;;;;8.30;4.43;;;;;;;24.16;100.00;101573.50;5117783;28;20368;-73
2022/06/15 07:18:38;;;;;;;8.82;4.07;;;;;;;24.27;100.00;101573.69;5118087;28;20363;-72
2022/06/15 07:21:26;;;;;;;10.82;4.00;;;;;;;23.84;100.00;101570.94;5117263;28;20070;-72
2022/06/15 07:24:12;;;;;;;7.78;3.38;;;;;;;24.06;100.00;101569.63;5118185;28;20058;-73
2022/06/15 07:26:58;;;;;;;9.55;4.88;;;;;;;25.13;100.00;101574.53;5117181;28;20113;-72
2022/06/15 07:29:46;;;;;;;9.32;3.80;;;;;;;24.42;97.72;101571.88;5117340;28;20355;-73
2022/06/15 07:32:32;;;;;;;6.22;3.30;;;;;;;24.53;100.00;101574.78;5116935;28;20027;-73
2022/06/15 07:35:31;;;;;;;7.55;3.40;;;;;;;24.61;97.78;101578.75;5116840;28;20027;-73
2022/06/15 07:38:17;;;;;;;8.02;3.85;;;;;;;24.38;98.73;101578.38;5117601;28;20341;-73
2022/06/15 07:41:03;;;;;;;6.88;3.75;;;;;;;24.19;100.00;101586.66;5116891;28;20092;-73
2022/06/15 07:43:49;;;;;;;6.57;3.72;;;;;;;24.09;100.00;101580.16;5116580;28;20027;-73
2022/06/15 07:46:35;;;;;;;10.32;4.15;;;;;;;25.29;100.00;101579.78;5101758;28;20027;-72
2022/06/15 07:52:33;;;;;;;9.88;4.63;;;;;;;24.76;100.00;101574.25;5117095;28;20023;-73
2022/06/15 07:55:24;;;;;;;6.50;3.80;;;;;;;25.03;99.27;101575.22;5117395;28;20019;-73
2022/06/15 07:58:11;;;;;;;7.63;3.65;;;;;;;25.43;100.00;101577.09;5116786;28;20035;-73
2022/06/15 08:00:57;;;;;;;9.35;4.03;;;;;;;25.71;100.00;101576.94;5101495;28;20024;-73
2022/06/15 08:03:43;;;;;;;8.55;4.10;;;;;;;25.33;100.00;101571.44;5116375;28;20466;-71
2022/06/15 08:06:30;;;;;;;7.53;4.43;;;;;;;24.48;100.00;101569.72;5101972;28;20456;-72
2022/06/15 08:09:17;;;;;;;8.25;4.03;;;;;;;25.17;100.00;101575.16;5116278;28;20023;-71
2022/06/15 08:12:12;;;;;;;8.10;4.03;;;;;;;24.95;100.00;101569.47;5116999;28;20077;-71
2022/06/15 08:15:01;;;;;;;8.55;4.43;;;;;;;25.40;100.00;101569.22;5116036;28;20325;-72
2022/06/15 08:17:56;;;;;;;8.82;4.30;;;;;;;25.08;100.00;101570.41;5116348;28;20042;-72
2022/06/15 08:20:49;;;;;;;13.00;4.40;;;;;;;25.13;100.00;101568.28;5116380;28;20051;-72
2022/06/15 08:23:37;;;;;;;14.25;5.68;;;;;;;25.39;100.00;101572.88;5115888;28;20111;-73
2022/06/15 08:26:28;;;;;;;19.98;7.28;;;;;;;25.99;100.00;101567.00;5116302;28;20359;-73
2022/06/15 08:29:14;;;;;;;9.88;4.70;;;;;;;25.00;100.00;101576.22;5115840;28;20100;-73
2022/06/15 08:32:00;;;;;;;6.72;4.10;;;;;;;25.71;100.00;101576.94;5115760;28;20466;-73
2022/06/15 08:34:46;;;;;;;12.90;4.00;;;;;;;25.52;100.00;101576.47;5115372;28;20074;-72
2022/06/15 08:37:32;;;;;;;7.63;4.15;;;;;;;25.72;100.00;101576.84;5115399;28;20023;-73
2022/06/15 08:40:18;;;;;;;6.28;4.18;;;;;;;25.61;100.00;101579.41;5115952;28;20093;-73
2022/06/15 08:43:30;;;;;;;12.20;4.22;;;;;;;26.11;100.00;101581.41;5100976;28;20035;-74
2022/06/15 08:46:39;;;;;;;8.10;4.93;;;;;;;25.51;100.00;101580.97;5115880;28;20102;-74
2022/06/15 08:49:52;;;;;;;12.00;5.00;;;;;;;26.08;100.00;101581.63;5116388;28;20367;-72
2022/06/15 08:52:49;;;;;;;10.23;5.60;;;;;;;25.87;100.00;101574.97;5100273;28;20019;-72
2022/06/15 08:55:44;;;;;;;8.52;4.20;;;;;;;24.98;100.00;101588.03;5115613;28;20073;-73
2022/06/15 08:58:39;;;;;;;15.00;4.53;;;;;;;25.96;100.00;101582.47;5115964;28;20059;-73
2022/06/15 09:01:40;;;;;;;6.40;3.83;;;;;;;26.17;96.09;101587.25;5115830;28;20106;-73
2022/06/15 09:04:37;;;;;;;6.57;3.58;;;;;;;26.20;94.33;101594.22;5115477;28;20039;-73
2022/06/15 09:07:29;;;;;;;9.38;7.15;;;;;;;26.55;93.60;101585.44;5116274;28;20034;-74
2022/06/15 09:10:23;;;;;;;9.98;4.35;;;;;;;26.41;93.82;101582.00;5114641;28;20023;-73
2022/06/15 09:13:27;;;;;;;10.60;3.47;;;;;;;26.81;89.61;101578.25;5115687;28;20020;-72
2022/06/15 09:16:28;;;;;;;7.18;3.65;;;;;;;26.92;90.77;101584.59;5115132;28;20028;-73
2022/06/15 09:19:20;;;;;;;13.18;3.15;;;;;;;26.88;91.24;101588.47;5114755;28;20044;-71
2022/06/15 09:22:19;;;;;;;7.10;3.42;;;;;;;26.65;89.24;101585.69;5115292;28;20080;-72
2022/06/15 09:25:19;;;;;;;5.55;3.60;;;;;;;26.19;86.84;101588.00;5099942;28;20047;-73
2022/06/15 09:28:32;;;;;;;30.50;5.38;;;;;;;26.36;88.75;101582.31;5114260;28;20114;-73
2022/06/15 09:31:30;;;;;;;8.13;3.60;;;;;;;26.92;85.62;101592.66;5099935;28;20137;-73
2022/06/15 09:34:24;;;;;;;7.70;3.40;;;;;;;26.56;85.20;101586.31;5099655;28;20095;-73
2022/06/15 09:37:16;;;;;;;12.40;3.58;;;;;;;25.92;83.93;101584.44;5100468;28;20088;-73
2022/06/15 09:40:05;;;;;;;9.63;4.70;;;;;;;26.19;97.87;101579.06;5113946;28;20034;-73
2022/06/15 09:43:12;;;;;;;11.70;3.40;;;;;;;26.41;91.41;101577.47;5114686;28;20035;-73
2022/06/15 09:46:17;;;;;;;8.15;3.42;;;;;;;26.37;88.96;101580.50;5114410;28;20111;-72
2022/06/15 09:49:09;;;;;;;11.18;3.90;;;;;;;26.65;89.77;101574.94;5113581;28;20027;-74
2022/06/15 09:52:19;;;;;;;9.82;4.13;;;;;;;26.88;88.92;101574.19;5100092;28;20028;-73
2022/06/15 09:55:18;;;;;;;9.25;3.80;;;;;;;27.50;84.61;101583.94;5113519;28;20023;-74
2022/06/15 09:58:07;;;;;;;5.75;3.88;;;;;;;26.92;82.48;101583.72;5113412;28;20036;-74
2022/06/15 10:00:53;;;;;;;8.10;3.40;;;;;;;26.99;77.77;101585.00;5113851;28;20027;-72
2022/06/15 10:03:51;;;;;;;7.47;3.53;;;;;;;26.78;76.31;101584.72;5113456;28;20041;-72
2022/06/15 10:06:43;;;;;;;6.97;3.10;;;;;;;25.98;83.51;101583.22;5113932;28;20448;-74
2022/06/15 10:09:32;;;;;;;5.97;3.30;;;;;;;26.41;82.32;101582.00;5113253;28;20036;-72
2022/06/15 10:12:56;;;;;;;6.22;3.40;;;;;;;26.54;78.69;101574.78;5113621;28;20124;-72
2022/06/15 10:15:42;;;;;;;8.50;6.47;;;;;;;27.34;76.12;101577.97;5113817;28;20368;-73
2022/06/15 10:21:31;;;;;;;3.92;3.25;;;;;;;27.47;78.14;101572.56;5071986;28;20380;-72
2022/06/15 10:24:27;;;;;;;6.65;3.30;;;;;;;26.90;81.11;101572.22;5071802;28;20048;-73
2022/06/15 10:27:15;;;;;;;6.47;3.45;;;;;;;27.01;83.93;101559.72;5071590;28;20033;-73
2022/06/15 10:30:07;;;;;;;6.90;3.38;;;;;;;26.70;85.74;101562.91;5109543;28;20015;-72
2022/06/15 10:32:59;;;;;;;8.30;3.88;;;;;;;26.99;82.19;101563.47;5098837;28;20448;-72
2022/06/15 10:36:16;;;;;;;4.85;3.15;;;;;;;27.18;80.45;101550.44;5112391;28;20035;-72
2022/06/15 10:39:12;;;;;;;8.82;3.50;;;;;;;27.30;87.51;101557.63;5111992;28;20035;-72
2022/06/15 10:42:08;;;;;;;9.57;3.53;;;;;;;27.36;87.63;101554.47;5111563;28;20032;-72
2022/06/15 10:45:07;;;;;;;29.40;23.10;;;;;;;27.88;82.81;101555.00;5111694;28;20044;-73
2022/06/15 10:48:06;;;;;;;4.95;3.08;;;;;;;27.67;74.30;101556.59;5112172;28;20555;-73
2022/06/15 10:51:08;;;;;;;4.43;3.42;;;;;;;27.26;81.40;101554.31;5111648;28;20102;-71
2022/06/15 10:54:33;;;;;;;4.30;3.17;;;;;;;27.23;78.74;101551.84;5111659;28;20039;-73
2022/06/15 11:03:33;;;;;;;8.23;3.10;;;;;;;27.25;79.00;101547.19;5111902;28;20570;-73
2022/06/15 11:06:19;;;;;;;3.75;2.90;;;;;;;27.20;77.74;101549.38;5111957;28;20031;-72
2022/06/15 11:09:35;;;;;;;6.68;2.90;;;;;;;28.01;75.60;101552.25;5110707;28;20110;-73
2022/06/15 11:13:13;;;;;;;5.55;2.90;;;;;;;27.81;78.63;101553.75;5111377;28;20047;-71
2022/06/15 11:19:54;;;;;;;6.18;3.08;;;;;;;27.95;78.29;101555.41;5111533;28;20051;-70
2022/06/15 11:22:39;;;;;;;5.53;3.00;;;;;;;28.04;77.02;101554.72;5096831;28;20176;-70
2022/06/15 11:25:42;;;;;;;10.48;2.97;;;;;;;27.91;79.33;101545.84;5111176;28;20348;-70
2022/06/15 11:28:36;;;;;;;4.35;3.10;;;;;;;27.64;81.17;101546.06;5111078;28;20456;-70
2022/06/15 11:31:30;;;;;;;8.65;2.92;;;;;;;27.35;83.49;101545.56;5105415;28;20085;-70
2022/06/15 11:34:25;;;;;;;6.60;3.00;;;;;;;27.37;80.32;101540.06;5098274;28;20023;-73
2022/06/15 11:37:24;;;;;;;8.57;3.47;;;;;;;27.45;79.92;101543.88;5097574;28;20312;-73
2022/06/15 11:40:20;;;;;;;6.80;3.70;;;;;;;27.33;83.74;101531.34;5097819;28;20096;-72
2022/06/15 11:43:20;;;;;;;4.45;2.83;;;;;;;27.47;82.05;101540.25;5097138;28;20020;-73
2022/06/15 11:46:37;;;;;;;5.28;2.75;;;;;;;27.73;79.38;101548.09;5096948;28;20448;-73
2022/06/15 11:49:51;;;;;;;6.30;3.08;;;;;;;27.85;83.97;101555.28;5097325;28;20486;-73
2022/06/15 11:52:48;;;;;;;6.72;2.90;;;;;;;27.69;80.56;101548.41;5084120;28;20024;-73
2022/06/15 11:56:00;;;;;;;4.63;3.20;;;;;;;27.67;76.83;101540.44;5084500;28;20027;-71
2022/06/15 11:59:21;;;;;;;8.27;3.20;;;;;;;27.91;74.57;101546.72;5096723;28;20360;-71
2022/06/15 12:02:44;;;;;;;4.93;3.38;;;;;;;27.17;76.94;101549.56;5015800;28;20360;-71
2022/06/15 12:05:45;;;;;;;7.72;3.38;;;;;;;28.34;76.13;101544.25;5096458;28;20024;-72
2022/06/15 12:08:46;;;;;;;3.42;2.60;;;;;;;28.50;73.94;101539.41;5097230;28;20468;-72
2022/06/15 12:15:33;;;;;;;6.18;2.78;;;;;;;28.58;73.77;101543.22;5096616;28;20020;-72
2022/06/15 12:18:44;;;;;;;4.55;2.92;;;;;;;27.87;75.71;101537.16;5096527;28;20031;-72
2022/06/15 12:22:04;;;;;;;4.85;2.80;;;;;;;27.69;77.76;101540.34;5096392;28;20036;-72
2022/06/15 12:25:15;;;;;;;3.95;3.00;;;;;;;27.94;78.98;101535.69;5095477;28;20043;-72
2022/06/15 12:28:26;;;;;;;10.00;2.80;;;;;;;27.31;76.21;101538.69;5081432;28;20028;-73
2022/06/15 12:31:26;;;;;;;3.95;3.00;;;;;;;27.20;78.65;101529.66;5096405;28;20024;-74
2022/06/15 12:34:44;;;;;;;5.75;4.10;;;;;;;26.80;79.48;101528.16;5082065;28;20028;-73
2022/06/15 12:37:46;;;;;;;7.13;4.07;;;;;;;26.93;81.14;101521.75;5058783;28;20035;-71
2022/06/15 12:40:38;;;;;;;6.13;3.20;;;;;;;27.78;81.25;101513.56;5081026;28;20047;-71
2022/06/15 12:43:34;;;;;;;6.93;3.33;;;;;;;28.14;77.87;101516.16;5080925;28;20129;-71
2022/06/15 12:46:21;;;;;;;4.18;3.25;;;;;;;28.36;71.02;101510.78;5096432;28;20422;-70
2022/06/15 12:49:36;;;;;;;5.97;2.88;;;;;;;27.92;72.11;101515.25;5081479;28;20145;-69
2022/06/15 12:52:40;;;;;;;6.93;3.00;;;;;;;27.70;73.09;101507.03;5082342;28;20035;-70
2022/06/15 12:56:04;;;;;;;6.90;5.80;;;;;;;27.55;77.05;101498.28;5095641;28;20024;-69
2022/06/15 12:58:57;;;;;;;7.82;3.80;;;;;;;27.96;74.86;101500.56;5072826;28;20046;-70
2022/06/15 13:01:53;;;;;;;4.65;2.95;;;;;;;27.69;73.97;101498.13;5098033;28;20368;-71
2022/06/15 13:04:54;;;;;;;9.00;6.32;;;;;;;28.12;75.56;101484.94;5080744;28;20024;-73
2022/06/15 13:07:41;;;;;;;5.65;4.70;;;;;;;27.87;71.05;101487.78;5095727;28;20452;-72
2022/06/15 13:10:27;;;;;;;7.70;3.10;;;;;;;28.34;69.93;101488.50;5080636;28;20027;-72
2022/06/15 13:13:26;;;;;;;5.68;3.30;;;;;;;28.04;68.59;101482.81;5094453;28;20363;-74
2022/06/15 13:16:35;;;;;;;5.03;3.10;;;;;;;27.91;71.29;101489.25;5095887;28;20313;-72
2022/06/15 13:19:38;;;;;;;6.45;3.55;;;;;;;27.36;71.61;101489.88;5095316;28;20044;-75
2022/06/15 13:22:31;;;;;;;3.80;2.92;;;;;;;27.68;68.24;101485.59;5095342;28;20040;-73
2022/06/15 13:25:21;;;;;;;5.68;3.22;;;;;;;27.57;70.16;101482.03;5095247;28;20024;-73
2022/06/15 13:28:11;;;;;;;9.00;3.08;;;;;;;27.67;70.37;101481.19;5095287;28;20424;-74
2022/06/15 13:31:04;;;;;;;4.18;2.65;;;;;;;27.39;77.19;101487.84;5095129;28;20460;-72
2022/06/15 13:33:52;;;;;;;3.80;2.92;;;;;;;27.47;73.02;101486.41;5094623;28;20036;-72